Terminal Aerodrome Forecast
Issued by NWS

Home | Current Version | Previous Version | Text Only | Print | Product List | Glossary On
Versions: 1 2 3 4 5 6 7 8 9 10 11 12 13
000
FTUS43 KMQT 282000 AAB
TAFCMX
TAF AMD
KCMX 282052Z 2821/2918 30013KT 4SM -SHSN OVC025
      TEMPO 2821/2824 1 1/2SM -SHSN BKN015
     FM290600 32010KT 4SM -SHSN OVC020
     FM291400 32011G17KT 5SM -SHSN OVC025=

USA.gov is the U.S. government's official web portal to all federal, state and local government web resources and services.